createdAt,value
2017-04-11T00:00:22.146Z,1014.34
2017-04-11T00:01:32.372Z,1014.32
2017-04-11T00:02:42.300Z,1014.36
2017-04-11T00:03:52.533Z,1014.28
2017-04-11T00:05:02.764Z,1014.29
2017-04-11T00:06:12.395Z,1014.28
2017-04-11T00:07:22.321Z,1014.33
2017-04-11T00:08:32.236Z,1014.31
2017-04-11T00:09:42.468Z,1014.41
2017-04-11T00:10:52.700Z,1014.33
2017-04-11T00:12:02.936Z,1014.39
2017-04-11T00:13:12.543Z,1014.35
2017-04-11T00:14:22.802Z,1014.37
2017-04-11T00:15:32.719Z,1014.39
2017-04-11T00:16:42.947Z,1014.42
2017-04-11T00:17:53.171Z,1014.37
2017-04-11T00:19:03.087Z,1014.41
2017-04-11T00:20:13.011Z,1014.4
2017-04-11T00:21:23.235Z,1014.37
2017-04-11T00:22:33.173Z,1014.43
2017-04-11T00:23:43.406Z,1014.39
2017-04-11T00:24:53.322Z,1014.4
2017-04-11T00:26:03.239Z,1014.34
2017-04-11T00:27:13.461Z,1014.35
2017-04-11T00:28:23.379Z,1014.32
2017-04-11T00:29:33.597Z,1014.35
2017-04-11T00:30:43.820Z,1014.37
2017-04-11T00:31:53.733Z,1014.42
2017-04-11T00:33:03.336Z,1014.39
2017-04-11T00:34:13.564Z,1014.38
2017-04-11T00:35:23.476Z,1014.37
2017-04-11T00:36:33.706Z,1014.4
2017-04-11T00:37:43.665Z,1014.46
2017-04-11T00:38:53.595Z,1014.34
2017-04-11T00:40:03.826Z,1014.4
2017-04-11T00:41:14.061Z,1014.43
2017-04-11T00:42:23.997Z,1014.41
2017-04-11T00:43:33.913Z,1014.4
2017-04-11T00:44:43.834Z,1014.42
2017-04-11T00:45:54.053Z,1014.39
2017-04-11T00:47:04.285Z,1014.38
2017-04-11T00:48:14.536Z,1014.35
2017-04-11T00:49:24.764Z,1014.3
2017-04-11T00:50:34.686Z,1014.31
2017-04-11T00:51:44.599Z,1014.44
2017-04-11T00:52:54.194Z,1014.36
2017-04-11T00:54:04.438Z,1014.41
2017-04-11T00:55:14.669Z,1014.41
2017-04-11T00:56:24.894Z,1014.45
2017-04-11T00:57:35.120Z,1014.39
2017-04-11T00:58:45.042Z,1014.43
2017-04-11T00:59:54.962Z,1014.35
2017-04-11T01:01:05.195Z,1014.43
2017-04-11T01:02:15.121Z,1014.5
2017-04-11T01:03:25.063Z,1014.37
2017-04-11T01:04:34.354Z,1014.38
2017-04-11T01:05:44.269Z,1014.38
2017-04-11T01:06:54.184Z,1014.42
2017-04-11T01:08:03.795Z,1014.37
2017-04-11T01:09:13.408Z,1014.4
2017-04-11T01:10:23.644Z,1014.46
2017-04-11T01:11:33.568Z,1014.4
2017-04-11T01:12:43.179Z,1014.39
2017-04-11T01:13:53.096Z,1014.38
2017-04-11T01:15:03.331Z,1014.38
2017-04-11T01:16:12.936Z,1014.41
2017-04-11T01:17:23.162Z,1014.39
2017-04-11T01:18:33.398Z,1014.43
2017-04-11T01:19:43.629Z,1014.36
2017-04-11T01:20:53.852Z,1014.41
2017-04-11T01:22:03.771Z,1014.39
2017-04-11T01:23:13.999Z,1014.32
2017-04-11T01:24:24.233Z,1014.4
2017-04-11T01:25:34.153Z,1014.4
2017-04-11T01:26:43.757Z,1014.37
2017-04-11T01:27:53.988Z,1014.34
2017-04-11T01:29:03.903Z,1014.35
2017-04-11T01:30:14.140Z,1014.32
2017-04-11T01:31:24.366Z,1014.39
2017-04-11T01:32:34.595Z,1014.36
2017-04-11T01:33:44.199Z,1014.39
2017-04-11T01:34:53.800Z,1014.37
2017-04-11T01:36:04.035Z,1014.34
2017-04-11T01:37:14.271Z,1014.37
2017-04-11T01:38:24.500Z,1014.42
2017-04-11T01:39:34.418Z,1014.43
2017-04-11T01:40:44.030Z,1014.39
2017-04-11T01:41:54.255Z,1014.42
2017-04-11T01:43:04.489Z,1014.41
2017-04-11T01:44:14.741Z,1014.42
2017-04-11T01:45:24.970Z,1014.35
2017-04-11T01:46:35.227Z,1014.37
2017-04-11T01:47:43.914Z,1014.36
2017-04-11T01:48:54.134Z,1014.35
2017-04-11T01:50:04.367Z,1014.39
2017-04-11T01:51:14.603Z,1014.37
2017-04-11T01:52:24.510Z,1014.38
2017-04-11T01:53:34.751Z,1014.39
2017-04-11T01:54:44.993Z,1014.4
2017-04-11T01:55:54.912Z,1014.36
2017-04-11T01:57:04.835Z,1014.49
2017-04-11T01:58:14.792Z,1014.42
2017-04-11T01:59:25.027Z,1014.46
2017-04-11T02:00:34.948Z,1014.45
2017-04-11T02:01:44.863Z,1014.55
2017-04-11T02:02:55.122Z,1014.52
2017-04-11T02:04:05.359Z,1014.49
2017-04-11T02:05:15.271Z,1014.49
2017-04-11T02:06:25.188Z,1014.56
2017-04-11T02:07:35.107Z,1014.54
2017-04-11T02:08:45.333Z,1014.57
2017-04-11T02:09:55.252Z,1014.53
2017-04-11T02:11:05.534Z,1014.61
2017-04-11T02:12:15.773Z,1014.6
2017-04-11T02:13:25.689Z,1014.59
2017-04-11T02:14:35.608Z,1014.64
2017-04-11T02:15:45.214Z,1014.64
2017-04-11T02:16:54.813Z,1014.63
2017-04-11T02:18:05.046Z,1014.69
2017-04-11T02:19:15.277Z,1014.64
2017-04-11T02:20:25.187Z,1014.67
2017-04-11T02:21:35.421Z,1014.7
2017-04-11T02:22:45.356Z,1014.69
2017-04-11T02:23:55.606Z,1014.7
2017-04-11T02:25:05.843Z,1014.69
2017-04-11T02:26:15.763Z,1014.67
2017-04-11T02:27:25.995Z,1014.63
2017-04-11T02:28:35.620Z,1014.68
2017-04-11T02:29:45.544Z,1014.66
2017-04-11T02:30:55.474Z,1014.66
2017-04-11T02:32:05.703Z,1014.6
2017-04-11T02:33:15.621Z,1014.64
2017-04-11T02:34:25.852Z,1014.66
2017-04-11T02:35:35.779Z,1014.66
2017-04-11T02:36:46.001Z,1014.61
2017-04-11T02:37:55.912Z,1014.64
2017-04-11T02:39:05.844Z,1014.7
2017-04-11T02:40:16.086Z,1014.64
2017-04-11T02:41:26.313Z,1014.72
2017-04-11T02:42:36.233Z,1014.74
2017-04-11T02:43:46.463Z,1014.73
2017-04-11T02:44:56.688Z,1014.75
2017-04-11T02:46:06.935Z,1014.75
2017-04-11T02:47:17.168Z,1014.76
2017-04-11T02:48:27.391Z,1014.71
2017-04-11T02:49:37.627Z,1014.76
2017-04-11T02:50:47.538Z,1014.72
2017-04-11T02:51:57.140Z,1014.75
2017-04-11T02:53:06.742Z,1014.7
2017-04-11T02:54:16.664Z,1014.72
2017-04-11T02:55:26.895Z,1014.7
2017-04-11T02:56:37.129Z,1014.68
2017-04-11T02:57:46.732Z,1014.71
2017-04-11T02:58:56.657Z,1014.65
2017-04-11T03:00:06.890Z,1014.75
2017-04-11T03:01:16.495Z,1014.74
2017-04-11T03:02:26.717Z,1014.65
2017-04-11T03:03:36.645Z,1014.73
2017-04-11T03:04:46.880Z,1014.71
2017-04-11T03:05:56.798Z,1014.76
2017-04-11T03:07:07.032Z,1014.73
2017-04-11T03:08:16.945Z,1014.71
2017-04-11T03:09:27.173Z,1014.7
2017-04-11T03:10:37.091Z,1014.75
2017-04-11T03:11:47.013Z,1014.78
2017-04-11T03:12:57.239Z,1014.79
2017-04-11T03:14:07.163Z,1014.81
2017-04-11T03:15:17.400Z,1014.84
2017-04-11T03:16:27.672Z,1014.9
2017-04-11T03:17:37.274Z,1014.85
2017-04-11T03:18:47.503Z,1014.8
2017-04-11T03:19:57.413Z,1014.84
2017-04-11T03:21:07.640Z,1014.78
2017-04-11T03:22:17.247Z,1014.81
2017-04-11T03:23:27.173Z,1014.81
2017-04-11T03:24:37.412Z,1014.82
2017-04-11T03:25:47.652Z,1014.82
2017-04-11T03:26:57.262Z,1014.83
2017-04-11T03:28:07.186Z,1014.8
2017-04-11T03:29:17.101Z,1014.85
2017-04-11T03:30:27.336Z,1014.82
2017-04-11T03:31:37.565Z,1014.94
2017-04-11T03:32:47.479Z,1014.9
2017-04-11T03:33:57.712Z,1014.83
2017-04-11T03:35:07.629Z,1014.92
2017-04-11T03:36:17.547Z,1014.93
2017-04-11T03:39:08.264Z,1015.08
2017-04-11T03:40:18.490Z,1014.96
2017-04-11T03:41:28.094Z,1015.09
2017-04-11T03:42:37.695Z,1015.04
2017-04-11T03:43:47.925Z,1015.03
2017-04-11T03:44:57.842Z,1015.01
2017-04-11T03:46:08.075Z,1015.08
2017-04-11T03:47:18.298Z,1015.13
2017-04-11T03:48:28.519Z,1015.11
2017-04-11T03:49:38.437Z,1015.17
2017-04-11T03:50:48.661Z,1015.19
2017-04-11T03:51:58.878Z,1015.22
2017-04-11T03:53:09.102Z,1015.22
2017-04-11T03:54:19.324Z,1015.3
2017-04-11T03:55:29.563Z,1015.4
2017-04-11T03:56:39.788Z,1015.34
2017-04-11T03:57:49.389Z,1015.32
2017-04-11T03:58:59.611Z,1015.37
2017-04-11T04:00:09.207Z,1015.37
2017-04-11T04:01:19.114Z,1015.48
2017-04-11T04:02:29.023Z,1015.45
2017-04-11T04:03:39.252Z,1015.4
2017-04-11T04:04:49.486Z,1015.45
2017-04-11T04:05:59.415Z,1015.45
2017-04-11T04:07:09.646Z,1015.49
2017-04-11T04:08:19.879Z,1015.46
2017-04-11T04:09:30.108Z,1015.48
2017-04-11T04:10:39.721Z,1015.54
2017-04-11T04:11:49.950Z,1015.49
2017-04-11T04:13:00.178Z,1015.52
2017-04-11T04:14:10.092Z,1015.5
2017-04-11T04:15:20.007Z,1015.57
2017-04-11T04:16:30.233Z,1015.57
2017-04-11T04:17:40.481Z,1015.51
2017-04-11T04:18:50.393Z,1015.54
2017-04-11T04:20:00.307Z,1015.56
2017-04-11T04:21:10.218Z,1015.66
2017-04-11T04:22:20.130Z,1015.61
2017-04-11T04:23:30.367Z,1015.6
2017-04-11T04:24:40.594Z,1015.61
2017-04-11T04:25:50.814Z,1015.64
2017-04-11T04:27:01.035Z,1015.64
2017-04-11T04:28:11.273Z,1015.7
2017-04-11T04:29:21.183Z,1015.71
2017-04-11T04:30:31.097Z,1015.61
2017-04-11T04:31:41.009Z,1015.66
2017-04-11T04:32:51.230Z,1015.71
2017-04-11T04:34:01.137Z,1015.72
2017-04-11T04:35:11.377Z,1015.78
2017-04-11T04:36:21.602Z,1015.75
2017-04-11T04:37:31.835Z,1015.84
2017-04-11T04:38:41.755Z,1015.83
2017-04-11T04:39:51.353Z,1015.9
2017-04-11T04:41:00.951Z,1015.9
2017-04-11T04:42:10.862Z,1015.83
2017-04-11T04:43:20.773Z,1015.88
2017-04-11T04:44:30.995Z,1015.93
2017-04-11T04:45:41.219Z,1015.91
2017-04-11T04:46:51.446Z,1015.93
2017-04-11T04:48:01.674Z,1015.96
2017-04-11T04:49:11.585Z,1015.96
2017-04-11T04:50:21.489Z,1015.97
2017-04-11T04:51:31.718Z,1016.02
2017-04-11T04:52:41.940Z,1016.01
2017-04-11T04:53:52.171Z,1015.96
2017-04-11T04:55:02.393Z,1016.02
2017-04-11T04:56:12.617Z,1016.12
2017-04-11T04:57:22.842Z,1015.97
2017-04-11T04:58:32.752Z,1016.03
2017-04-11T04:59:42.707Z,1016.06
2017-04-11T05:00:52.625Z,1016.02
2017-04-11T05:02:02.857Z,1016.07
2017-04-11T05:03:13.080Z,1016.05
2017-04-11T05:04:22.694Z,1016.07
2017-04-11T05:05:32.917Z,1016.07
2017-04-11T05:06:43.144Z,1016.05
2017-04-11T05:07:53.060Z,1016.15
2017-04-11T05:09:02.986Z,1016.07
2017-04-11T05:10:12.592Z,1016.12
2017-04-11T05:11:21.881Z,1016.16
2017-04-11T05:12:31.793Z,1016.13
2017-04-11T05:13:42.013Z,1016.08
2017-04-11T05:14:52.235Z,1016.1
2017-04-11T05:16:02.463Z,1016.07
2017-04-11T05:17:12.379Z,1016.08
2017-04-11T05:18:22.294Z,1016.1
2017-04-11T05:19:32.538Z,1016.11
2017-04-11T05:20:42.456Z,1016.13
2017-04-11T05:21:52.363Z,1016.15
2017-04-11T05:23:02.272Z,1016.14
2017-04-11T05:24:11.563Z,1016.11
2017-04-11T05:25:21.479Z,1016.18
2017-04-11T05:26:31.394Z,1016.23
2017-04-11T05:27:41.617Z,1016.21
2017-04-11T05:28:51.218Z,1016.18
2017-04-11T05:30:01.447Z,1016.19
2017-04-11T05:31:11.370Z,1016.19
2017-04-11T05:32:21.601Z,1016.24
2017-04-11T05:33:31.824Z,1016.13
2017-04-11T05:34:42.048Z,1016.19
2017-04-11T05:35:51.649Z,1016.2
2017-04-11T05:37:01.574Z,1016.24
2017-04-11T05:38:11.801Z,1016.26
2017-04-11T05:39:21.406Z,1016.25
2017-04-11T05:40:30.998Z,1016.22
2017-04-11T05:41:41.266Z,1016.19
2017-04-11T05:42:51.494Z,1016.28
2017-04-11T05:44:01.723Z,1016.33
2017-04-11T05:45:11.952Z,1016.32
2017-04-11T05:46:22.173Z,1016.21
2017-04-11T05:47:32.395Z,1016.34
2017-04-11T05:48:42.310Z,1016.31
2017-04-11T05:49:52.229Z,1016.39
2017-04-11T05:51:02.140Z,1016.46
2017-04-11T05:52:11.740Z,1016.38
2017-04-11T05:53:21.654Z,1016.46
2017-04-11T05:54:31.886Z,1016.46
2017-04-11T05:55:41.828Z,1016.58
2017-04-11T05:56:52.057Z,1016.45
2017-04-11T05:58:02.284Z,1016.51
2017-04-11T05:59:12.198Z,1016.56
2017-04-11T06:00:21.804Z,1016.54
2017-04-11T06:01:32.022Z,1016.53
2017-04-11T06:02:42.249Z,1016.52
2017-04-11T06:03:52.157Z,1016.56
2017-04-11T06:05:02.388Z,1016.58
2017-04-11T06:06:12.629Z,1016.58
2017-04-11T06:07:22.851Z,1016.61
2017-04-11T06:08:32.767Z,1016.6
2017-04-11T06:09:42.677Z,1016.64
2017-04-11T06:10:52.908Z,1016.56
2017-04-11T06:12:03.127Z,1016.58
2017-04-11T06:13:13.044Z,1016.6
2017-04-11T06:14:22.979Z,1016.57
2017-04-11T06:15:33.205Z,1016.64
2017-04-11T06:16:43.432Z,1016.66
2017-04-11T06:17:53.654Z,1016.67
2017-04-11T06:19:03.572Z,1016.75
2017-04-11T06:20:13.803Z,1016.75
2017-04-11T06:21:24.024Z,1016.77
2017-04-11T06:22:34.252Z,1016.57
2017-04-11T06:23:44.472Z,1016.66
2017-04-11T06:24:54.695Z,1016.59
2017-04-11T06:26:04.933Z,1016.53
2017-04-11T06:27:14.846Z,1016.66
2017-04-11T06:28:25.110Z,1016.57
2017-04-11T06:29:35.333Z,1016.65
2017-04-11T06:30:45.247Z,1016.69
2017-04-11T06:31:55.472Z,1016.68
2017-04-11T06:33:05.398Z,1016.72
2017-04-11T06:34:15.624Z,1016.75
2017-04-11T06:35:25.225Z,1016.69
2017-04-11T06:36:35.137Z,1016.78
2017-04-11T06:37:45.077Z,1016.74
2017-04-11T06:38:54.678Z,1016.73
2017-04-11T06:40:04.896Z,1016.78
2017-04-11T06:41:14.506Z,1016.78
2017-04-11T06:42:24.731Z,1016.74
2017-04-11T06:43:34.966Z,1016.74
2017-04-11T06:44:45.195Z,1016.69
2017-04-11T06:45:55.106Z,1016.79
2017-04-11T06:47:05.020Z,1016.9
2017-04-11T06:48:14.937Z,1016.76
2017-04-11T06:49:24.543Z,1016.9
2017-04-11T06:50:34.460Z,1016.83
2017-04-11T06:51:44.683Z,1016.82
2017-04-11T06:52:54.605Z,1016.77
2017-04-11T06:54:04.830Z,1016.94
2017-04-11T06:55:15.059Z,1016.83
2017-04-11T06:56:25.021Z,1016.77
2017-04-11T06:57:34.945Z,1016.82
2017-04-11T06:58:45.175Z,1016.78
2017-04-11T06:59:55.403Z,1016.9
2017-04-11T07:01:05.630Z,1016.9
2017-04-11T07:02:15.856Z,1016.87
2017-04-11T07:03:25.157Z,1016.84
2017-04-11T07:04:35.382Z,1016.79
2017-04-11T07:05:45.295Z,1016.8
2017-04-11T07:06:55.225Z,1016.75
2017-04-11T07:08:05.136Z,1016.69
2017-04-11T07:09:14.429Z,1016.79
2017-04-11T07:10:24.032Z,1016.73
2017-04-11T07:11:34.260Z,1016.79
2017-04-11T07:12:44.484Z,1016.69
2017-04-11T07:13:54.424Z,1016.68
2017-04-11T07:15:04.343Z,1016.68
2017-04-11T07:16:14.561Z,1016.74
2017-04-11T07:17:24.154Z,1016.65
2017-04-11T07:18:34.061Z,1016.73
2017-04-11T07:19:44.291Z,1016.74
2017-04-11T07:20:54.207Z,1016.78
2017-04-11T07:22:04.123Z,1016.79
2017-04-11T07:23:14.354Z,1016.78
2017-04-11T07:24:24.266Z,1016.78
2017-04-11T07:25:34.181Z,1016.83
2017-04-11T07:26:44.089Z,1016.71
2017-04-11T07:27:54.313Z,1016.84
2017-04-11T07:29:04.536Z,1016.75
2017-04-11T07:30:14.455Z,1016.85
2017-04-11T07:31:24.727Z,1016.76
2017-04-11T07:32:34.951Z,1016.73
2017-04-11T07:33:44.549Z,1016.78
2017-04-11T07:34:54.763Z,1016.75
2017-04-11T07:36:04.990Z,1016.8
2017-04-11T07:37:14.911Z,1016.82
2017-04-11T07:38:24.822Z,1016.78
2017-04-11T07:39:34.728Z,1016.87
2017-04-11T07:40:44.329Z,1016.86
2017-04-11T07:41:54.553Z,1016.86
2017-04-11T07:43:04.151Z,1016.88
2017-04-11T07:44:14.070Z,1016.86
2017-04-11T07:45:23.674Z,1016.9
2017-04-11T07:46:33.905Z,1016.91
2017-04-11T07:47:43.819Z,1016.95
2017-04-11T07:48:53.425Z,1016.98
2017-04-11T07:50:03.659Z,1016.95
2017-04-11T07:51:13.569Z,1016.97
2017-04-11T07:52:23.790Z,1016.96
2017-04-11T07:53:34.019Z,1017.02
2017-04-11T07:54:43.937Z,1017.03
2017-04-11T07:55:53.845Z,1017.02
2017-04-11T07:57:03.757Z,1017.06
2017-04-11T07:58:13.997Z,1017.01
2017-04-11T07:59:24.220Z,1017
2017-04-11T08:00:34.128Z,1017.01
2017-04-11T08:01:44.360Z,1017.01
2017-04-11T08:02:54.275Z,1016.99
2017-04-11T08:04:04.501Z,1016.95
2017-04-11T08:05:14.778Z,1016.94
2017-04-11T08:06:25.017Z,1016.98
2017-04-11T08:07:34.623Z,1016.98
2017-04-11T08:08:44.850Z,1017.04
2017-04-11T08:09:54.760Z,1017.05
2017-04-11T08:11:04.984Z,1016.96
2017-04-11T08:12:15.244Z,1017.02
2017-04-11T08:13:25.161Z,1017.04
2017-04-11T08:14:35.081Z,1017.03
2017-04-11T08:15:45.315Z,1016.99
2017-04-11T08:16:55.540Z,1017.16
2017-04-11T08:18:05.139Z,1017.02
2017-04-11T08:19:14.743Z,1017.07
2017-04-11T08:20:24.654Z,1017.12
2017-04-11T08:21:34.881Z,1017
2017-04-11T08:22:45.108Z,1017.03
2017-04-11T08:23:55.016Z,1017.13
2017-04-11T08:25:05.250Z,1017.06
2017-04-11T08:26:15.166Z,1016.98
2017-04-11T08:27:24.770Z,1017.14
2017-04-11T08:28:34.692Z,1017.16
2017-04-11T08:29:44.608Z,1017.06
2017-04-11T08:30:54.229Z,1017.13
2017-04-11T08:32:04.452Z,1017.11
2017-04-11T08:33:14.366Z,1017.13
2017-04-11T08:34:24.280Z,1017.17
2017-04-11T08:35:34.194Z,1017.17
2017-04-11T08:36:44.120Z,1017.2
2017-04-11T08:37:54.028Z,1017.35
2017-04-11T08:39:04.294Z,1017.19
2017-04-11T08:40:14.953Z,1017.21
2017-04-11T08:41:25.173Z,1017.18
2017-04-11T08:42:35.089Z,1017.14
2017-04-11T08:43:44.704Z,1017.16
2017-04-11T08:44:54.620Z,1017.18
2017-04-11T08:46:04.850Z,1017.14
2017-04-11T08:47:14.455Z,1017.17
2017-04-11T08:48:23.761Z,1017.2
2017-04-11T08:49:33.686Z,1017.1
2017-04-11T08:50:43.601Z,1017.12
2017-04-11T08:51:53.513Z,1017.09
2017-04-11T08:53:03.435Z,1017.15
2017-04-11T08:54:13.034Z,1017.09
2017-04-11T08:55:23.261Z,1017.15
2017-04-11T08:56:33.482Z,1017.13
2017-04-11T08:57:43.733Z,1017.17
2017-04-11T08:58:53.962Z,1017.15
2017-04-11T09:00:03.589Z,1017.22
2017-04-11T09:01:13.823Z,1017.16
2017-04-11T09:02:23.732Z,1017.16
2017-04-11T09:03:33.649Z,1017.15
2017-04-11T09:04:43.881Z,1017.12
2017-04-11T09:05:53.795Z,1017.22
2017-04-11T09:07:03.404Z,1017.3
2017-04-11T09:08:13.319Z,1017.15
2017-04-11T09:09:23.547Z,1017.2
2017-04-11T09:10:33.778Z,1017.18
2017-04-11T09:11:43.701Z,1017.23
2017-04-11T09:12:53.926Z,1017.28
2017-04-11T09:14:04.152Z,1017.4
2017-04-11T09:15:14.067Z,1017.28
2017-04-11T09:16:24.291Z,1017.35
2017-04-11T09:17:34.202Z,1017.36
2017-04-11T09:18:43.806Z,1017.35
2017-04-11T09:19:54.033Z,1017.32
2017-04-11T09:21:04.260Z,1017.34
2017-04-11T09:22:14.480Z,1017.28
2017-04-11T09:23:24.709Z,1017.37
2017-04-11T09:24:34.620Z,1017.38
2017-04-11T09:25:44.538Z,1017.3
2017-04-11T09:26:54.767Z,1017.34
2017-04-11T09:28:04.681Z,1017.41
2017-04-11T09:29:14.587Z,1017.33
2017-04-11T09:30:24.814Z,1017.32
2017-04-11T09:31:35.039Z,1017.32
2017-04-11T09:32:44.960Z,1017.38
2017-04-11T09:33:54.875Z,1017.35
2017-04-11T09:35:04.798Z,1017.41
2017-04-11T09:36:15.052Z,1017.36
2017-04-11T09:37:25.279Z,1017.43
2017-04-11T09:38:34.574Z,1017.43
2017-04-11T09:39:44.489Z,1017.46
2017-04-11T09:40:54.725Z,1017.47
2017-04-11T09:42:04.953Z,1017.54
2017-04-11T09:43:14.871Z,1017.71
2017-04-11T09:44:24.785Z,1017.77
2017-04-11T09:45:34.384Z,1017.71
2017-04-11T09:46:43.984Z,1017.82
2017-04-11T09:47:54.203Z,1017.87
2017-04-11T09:49:04.121Z,1017.94
2017-04-11T09:50:14.351Z,1017.92
2017-04-11T09:51:23.961Z,1017.97
2017-04-11T09:52:33.559Z,1017.99
2017-04-11T09:53:43.478Z,1018.04
2017-04-11T09:54:53.396Z,1018.06
2017-04-11T09:56:03.015Z,1018.06
2017-04-11T09:57:12.929Z,1017.98
2017-04-11T09:58:22.555Z,1018.02
2017-04-11T09:59:32.149Z,1017.97
2017-04-11T10:00:41.436Z,1017.95
2017-04-11T10:01:51.349Z,1017.95
2017-04-11T10:03:00.636Z,1017.96
2017-04-11T10:04:10.556Z,1017.93
2017-04-11T10:05:20.468Z,1017.9
2017-04-11T10:06:30.701Z,1017.85
2017-04-11T10:07:40.300Z,1017.87
2017-04-11T10:08:50.223Z,1017.87
2017-04-11T10:10:00.139Z,1017.89
2017-04-11T10:11:09.740Z,1017.8
2017-04-11T10:12:19.658Z,1017.78
2017-04-11T10:13:29.573Z,1017.78
2017-04-11T10:14:39.187Z,1017.84
2017-04-11T10:15:49.102Z,1017.8
2017-04-11T10:16:59.015Z,1017.77
2017-04-11T10:18:08.614Z,1017.8
2017-04-11T10:19:18.835Z,1017.87
2017-04-11T10:20:28.129Z,1017.75
2017-04-11T10:21:38.045Z,1017.67
2017-04-11T10:22:48.277Z,1017.81
2017-04-11T10:23:58.509Z,1017.63
2017-04-11T10:25:08.113Z,1017.58
2017-04-11T10:26:18.030Z,1017.69
2017-04-11T10:27:27.947Z,1017.62
2017-04-11T10:28:38.171Z,1017.61
2017-04-11T10:29:48.091Z,1017.62
2017-04-11T10:30:58.014Z,1017.55
2017-04-11T10:32:07.926Z,1017.5
2017-04-11T10:33:17.212Z,1017.54
2017-04-11T10:34:27.443Z,1017.54
2017-04-11T10:35:37.675Z,1017.42
2017-04-11T10:36:47.277Z,1017.42
2017-04-11T10:37:57.188Z,1017.45
2017-04-11T10:39:06.835Z,1017.44
2017-04-11T10:40:16.441Z,1017.47
2017-04-11T10:41:26.364Z,1017.49
2017-04-11T10:42:35.966Z,1017.38
2017-04-11T10:43:45.255Z,1017.46
2017-04-11T10:44:54.857Z,1017.45
2017-04-11T10:46:04.774Z,1017.44
2017-04-11T10:47:14.730Z,1017.47
2017-04-11T10:48:24.654Z,1017.47
2017-04-11T10:49:34.590Z,1017.5
2017-04-11T10:50:44.506Z,1017.61
2017-04-11T10:51:54.104Z,1017.53
2017-04-11T10:53:03.707Z,1017.54
2017-04-11T10:54:13.941Z,1017.56
2017-04-11T10:55:24.168Z,1017.55
2017-04-11T10:56:34.089Z,1017.6
2017-04-11T10:57:44.310Z,1017.64
2017-04-11T10:58:54.221Z,1017.63
2017-04-11T11:00:03.816Z,1017.75
2017-04-11T11:01:14.039Z,1017.68
2017-04-11T11:02:23.326Z,1017.7
2017-04-11T11:03:33.554Z,1017.74
2017-04-11T11:04:43.469Z,1017.71
2017-04-11T11:05:53.693Z,1017.71
2017-04-11T11:07:03.607Z,1017.62
2017-04-11T11:08:13.519Z,1017.62
2017-04-11T11:09:23.435Z,1017.67
2017-04-11T11:10:33.661Z,1017.62
2017-04-11T11:11:43.262Z,1017.56
2017-04-11T11:12:53.176Z,1017.66
2017-04-11T11:14:02.475Z,1017.65
2017-04-11T11:15:12.083Z,1017.66
2017-04-11T11:16:22.304Z,1017.75
2017-04-11T11:17:31.604Z,1017.73
2017-04-11T11:18:41.828Z,1017.8
2017-04-11T11:19:51.432Z,1017.67
2017-04-11T11:21:01.721Z,1017.71
2017-04-11T11:22:11.641Z,1017.65
2017-04-11T11:23:21.249Z,1017.64
2017-04-11T11:24:31.163Z,1017.65
2017-04-11T11:25:41.077Z,1017.61
2017-04-11T11:26:51.020Z,1017.77
2017-04-11T11:28:01.242Z,1017.73
2017-04-11T11:29:11.156Z,1017.65
2017-04-11T11:30:21.072Z,1017.73
2017-04-11T11:31:31.301Z,1017.78
2017-04-11T11:32:41.216Z,1017.75
2017-04-11T11:33:51.440Z,1017.87
2017-04-11T11:35:01.673Z,1017.76
2017-04-11T11:36:11.588Z,1017.81
2017-04-11T11:37:21.502Z,1017.86
2017-04-11T11:38:31.728Z,1017.91
2017-04-11T11:39:41.950Z,1017.86
2017-04-11T11:40:51.555Z,1017.93
2017-04-11T11:42:01.152Z,1018.02
2017-04-11T11:43:10.750Z,1017.97
2017-04-11T11:44:20.665Z,1018.02
2017-04-11T11:45:30.901Z,1018.01
2017-04-11T11:46:41.129Z,1017.98
2017-04-11T11:47:50.165Z,1018.04
2017-04-11T11:49:00.079Z,1017.97
2017-04-11T11:50:10.315Z,1017.98
2017-04-11T11:51:19.600Z,1018
2017-04-11T11:52:29.509Z,1017.99
2017-04-11T11:53:39.953Z,1017.94
2017-04-11T11:54:50.199Z,1017.93
2017-04-11T11:56:00.112Z,1017.95
2017-04-11T11:57:10.028Z,1018.05
2017-04-11T11:58:19.317Z,1018.04
2017-04-11T11:59:28.924Z,1017.97
2017-04-11T12:00:39.155Z,1017.94
2017-04-11T12:01:49.075Z,1018
2017-04-11T12:02:58.679Z,1017.98
2017-04-11T12:04:08.600Z,1017.99
2017-04-11T12:05:18.219Z,1017.97
2017-04-11T12:06:28.454Z,1017.91
2017-04-11T12:07:38.684Z,1017.94
2017-04-11T12:08:48.608Z,1017.91
2017-04-11T12:09:58.839Z,1018.06
2017-04-11T12:11:08.759Z,1017.85
2017-04-11T12:12:18.670Z,1017.98
2017-04-11T12:13:28.276Z,1017.96
2017-04-11T12:14:38.517Z,1017.88
2017-04-11T12:15:47.804Z,1017.91
2017-04-11T12:16:57.744Z,1017.89
2017-04-11T12:18:07.660Z,1017.79
2017-04-11T12:19:17.266Z,1017.82
2017-04-11T12:20:27.217Z,1017.73
2017-04-11T12:21:36.818Z,1017.73
2017-04-11T12:22:47.041Z,1017.74
2017-04-11T12:23:56.958Z,1017.62
2017-04-11T12:25:06.873Z,1017.6
2017-04-11T12:26:16.789Z,1017.58
2017-04-11T12:27:26.712Z,1017.59
2017-04-11T12:28:36.624Z,1017.51
2017-04-11T12:29:46.229Z,1017.48
2017-04-11T12:30:55.833Z,1017.44
2017-04-11T12:32:06.075Z,1017.42
2017-04-11T12:33:15.992Z,1017.51
2017-04-11T12:34:25.288Z,1017.46
2017-04-11T12:35:35.205Z,1017.54
2017-04-11T12:36:45.118Z,1017.61
2017-04-11T12:37:54.722Z,1017.53
2017-04-11T12:39:04.331Z,1017.57
2017-04-11T12:40:14.565Z,1017.57
2017-04-11T12:41:24.792Z,1017.59
2017-04-11T12:42:35.023Z,1017.55
2017-04-11T12:43:44.939Z,1017.57
2017-04-11T12:44:55.170Z,1017.56
2017-04-11T12:46:05.431Z,1017.53
2017-04-11T12:47:15.279Z,1017.52
2017-04-11T12:48:25.499Z,1017.58
2017-04-11T12:49:35.409Z,1017.61
2017-04-11T12:50:45.324Z,1017.47
2017-04-11T12:51:55.547Z,1017.55
2017-04-11T12:53:05.463Z,1017.58
2017-04-11T12:54:15.381Z,1017.62
2017-04-11T12:55:25.304Z,1017.57
2017-04-11T12:56:35.215Z,1017.54
2017-04-11T12:57:44.815Z,1017.53
2017-04-11T12:58:54.414Z,1017.51
2017-04-11T13:00:04.334Z,1017.5
2017-04-11T13:01:13.653Z,1017.48
2017-04-11T13:02:23.254Z,1017.48
2017-04-11T13:03:33.168Z,1017.57
2017-04-11T13:04:43.079Z,1017.51
2017-04-11T13:05:53.006Z,1017.51
2017-04-11T13:07:03.274Z,1017.6
2017-04-11T13:08:13.184Z,1017.56
2017-04-11T13:09:23.405Z,1017.62
2017-04-11T13:10:33.645Z,1017.51
2017-04-11T13:11:43.868Z,1017.44
2017-04-11T13:12:53.785Z,1017.52
2017-04-11T13:14:04.015Z,1017.57
2017-04-11T13:15:14.238Z,1017.52
2017-04-11T13:16:23.835Z,1017.53
2017-04-11T13:17:33.758Z,1017.47
2017-04-11T13:18:43.989Z,1017.52
2017-04-11T13:19:54.216Z,1017.45
2017-04-11T13:21:04.439Z,1017.52
2017-04-11T13:22:14.366Z,1017.54
2017-04-11T13:23:23.967Z,1017.52
2017-04-11T13:24:34.200Z,1017.47
2017-04-11T13:25:44.435Z,1017.48
2017-04-11T13:26:54.351Z,1017.38
2017-04-11T13:28:04.572Z,1017.41
2017-04-11T13:29:14.807Z,1017.45
2017-04-11T13:30:24.405Z,1017.4
2017-04-11T13:31:34.009Z,1017.34
2017-04-11T13:32:44.232Z,1017.32
2017-04-11T13:33:54.157Z,1017.32
2017-04-11T13:35:04.072Z,1017.28
2017-04-11T13:36:14.300Z,1017.35
2017-04-11T13:37:24.217Z,1017.3
2017-04-11T13:38:34.468Z,1017.35
2017-04-11T13:39:44.396Z,1017.3
2017-04-11T13:40:54.614Z,1017.36
2017-04-11T13:42:04.216Z,1017.31
2017-04-11T13:43:14.439Z,1017.34
2017-04-11T13:44:24.347Z,1017.29
2017-04-11T13:45:34.257Z,1017.35
2017-04-11T13:46:44.173Z,1017.37
2017-04-11T13:47:54.086Z,1017.35
2017-04-11T13:49:04.001Z,1017.26
2017-04-11T13:50:13.614Z,1017.33
2017-04-11T13:51:23.841Z,1017.15
2017-04-11T13:52:33.751Z,1017.23
2017-04-11T13:53:43.675Z,1017.25
2017-04-11T13:54:53.271Z,1017.2
2017-04-11T13:56:03.187Z,1017.18
2017-04-11T13:57:12.790Z,1017.26
2017-04-11T13:58:22.398Z,1017.25
2017-04-11T13:59:31.996Z,1017.25
2017-04-11T14:00:41.599Z,1017.23
2017-04-11T14:01:51.830Z,1017.21
2017-04-11T14:03:02.055Z,1017.24
2017-04-11T14:04:12.289Z,1017.23
2017-04-11T14:05:21.891Z,1017.16
2017-04-11T14:06:31.811Z,1017.12
2017-04-11T14:07:41.414Z,1017.12
2017-04-11T14:08:51.327Z,1017.24
2017-04-11T14:10:01.237Z,1017.17
2017-04-11T14:11:11.497Z,1017.17